sensor_id;sensor_type;location;lat;lon;timestamp;temperature;humidity
10143;DHT22;5112;54.088;13.446;2023-02-15T00:07:14;1.40;99.90
10143;DHT22;5112;54.088;13.446;2023-02-15T00:17:17;1.50;99.90
10143;DHT22;5112;54.088;13.446;2023-02-15T00:27:19;1.30;99.90
10143;DHT22;5112;54.088;13.446;2023-02-15T00:37:22;1.10;99.90
10143;DHT22;5112;54.088;13.446;2023-02-15T00:47:23;1.40;99.90
10143;DHT22;5112;54.088;13.446;2023-02-15T00:57:27;1.60;99.90
10143;DHT22;5112;54.088;13.446;2023-02-15T01:07:28;1.90;99.90
10143;DHT22;5112;54.088;13.446;2023-02-15T01:17:32;2.00;99.90
10143;DHT22;5112;54.088;13.446;2023-02-15T01:27:33;1.80;99.90
10143;DHT22;5112;54.088;13.446;2023-02-15T01:37:37;1.60;99.90
10143;DHT22;5112;54.088;13.446;2023-02-15T01:47:42;1.70;99.90
10143;DHT22;5112;54.088;13.446;2023-02-15T01:57:46;1.60;99.90
10143;DHT22;5112;54.088;13.446;2023-02-15T02:07:50;1.40;99.90
10143;DHT22;5112;54.088;13.446;2023-02-15T02:18:04;1.40;99.90
10143;DHT22;5112;54.088;13.446;2023-02-15T02:28:24;1.50;99.90
10143;DHT22;5112;54.088;13.446;2023-02-15T02:38:42;1.40;99.90
10143;DHT22;5112;54.088;13.446;2023-02-15T02:48:47;1.50;99.90
10143;DHT22;5112;54.088;13.446;2023-02-15T02:58:56;1.60;99.90
10143;DHT22;5112;54.088;13.446;2023-02-15T03:09:04;1.40;99.90
10143;DHT22;5112;54.088;13.446;2023-02-15T03:19:11;1.30;99.90
10143;DHT22;5112;54.088;13.446;2023-02-15T03:29:15;1.30;99.90
10143;DHT22;5112;54.088;13.446;2023-02-15T03:39:22;1.30;99.90
10143;DHT22;5112;54.088;13.446;2023-02-15T03:49:28;1.30;99.90
10143;DHT22;5112;54.088;13.446;2023-02-15T03:59:32;1.10;99.90
10143;DHT22;5112;54.088;13.446;2023-02-15T04:09:52;0.90;99.90
10143;DHT22;5112;54.088;13.446;2023-02-15T04:20:12;1.00;99.90
10143;DHT22;5112;54.088;13.446;2023-02-15T04:30:31;0.90;99.90
10143;DHT22;5112;54.088;13.446;2023-02-15T04:40:34;0.90;99.90
10143;DHT22;5112;54.088;13.446;2023-02-15T04:50:36;1.00;99.90
10143;DHT22;5112;54.088;13.446;2023-02-15T05:00:39;0.90;99.90
10143;DHT22;5112;54.088;13.446;2023-02-15T05:10:41;0.70;99.90
10143;DHT22;5112;54.088;13.446;2023-02-15T05:20:44;0.90;99.90
10143;DHT22;5112;54.088;13.446;2023-02-15T05:30:46;0.80;99.90
10143;DHT22;5112;54.088;13.446;2023-02-15T05:40:50;0.80;99.90
10143;DHT22;5112;54.088;13.446;2023-02-15T05:50:58;0.80;99.90
10143;DHT22;5112;54.088;13.446;2023-02-15T06:01:08;0.80;99.90
10143;DHT22;5112;54.088;13.446;2023-02-15T06:11:10;0.60;99.90
10143;DHT22;5112;54.088;13.446;2023-02-15T06:21:13;0.50;99.90
10143;DHT22;5112;54.088;13.446;2023-02-15T06:31:15;0.30;99.90
10143;DHT22;5112;54.088;13.446;2023-02-15T06:41:18;0.30;99.90
10143;DHT22;5112;54.088;13.446;2023-02-15T06:51:20;0.20;99.90
10143;DHT22;5112;54.088;13.446;2023-02-15T07:01:23;0.30;99.90
10143;DHT22;5112;54.088;13.446;2023-02-15T07:11:24;0.40;99.90
10143;DHT22;5112;54.088;13.446;2023-02-15T07:21:45;0.40;99.90
10143;DHT22;5112;54.088;13.446;2023-02-15T07:31:46;0.60;99.90
10143;DHT22;5112;54.088;13.446;2023-02-15T07:41:49;0.80;99.90
10143;DHT22;5112;54.088;13.446;2023-02-15T07:51:51;0.90;99.90
10143;DHT22;5112;54.088;13.446;2023-02-15T08:01:54;1.10;99.90
10143;DHT22;5112;54.088;13.446;2023-02-15T08:11:56;1.30;99.90
10143;DHT22;5112;54.088;13.446;2023-02-15T08:22:01;1.30;99.90
10143;DHT22;5112;54.088;13.446;2023-02-15T08:32:05;1.40;99.90
10143;DHT22;5112;54.088;13.446;2023-02-15T08:42:08;1.60;99.90
10143;DHT22;5112;54.088;13.446;2023-02-15T08:52:10;1.70;99.90
10143;DHT22;5112;54.088;13.446;2023-02-15T09:02:13;1.80;99.90
10143;DHT22;5112;54.088;13.446;2023-02-15T09:12:14;1.90;99.90
10143;DHT22;5112;54.088;13.446;2023-02-15T09:22:17;1.90;99.90
10143;DHT22;5112;54.088;13.446;2023-02-15T09:32:19;1.90;99.90
10143;DHT22;5112;54.088;13.446;2023-02-15T09:43:01;2.00;99.90
10143;DHT22;5112;54.088;13.446;2023-02-15T09:53:28;2.00;99.90
10143;DHT22;5112;54.088;13.446;2023-02-15T10:03:47;2.00;99.90
10143;DHT22;5112;54.088;13.446;2023-02-15T10:14:04;2.50;99.90
10143;DHT22;5112;54.088;13.446;2023-02-15T10:24:23;2.50;99.90
10143;DHT22;5112;54.088;13.446;2023-02-15T10:34:32;2.70;99.90
10143;DHT22;5112;54.088;13.446;2023-02-15T10:44:48;3.00;99.90
10143;DHT22;5112;54.088;13.446;2023-02-15T10:54:57;3.10;99.90
10143;DHT22;5112;54.088;13.446;2023-02-15T11:05:19;3.10;99.90
10143;DHT22;5112;54.088;13.446;2023-02-15T11:15:28;3.40;99.90
10143;DHT22;5112;54.088;13.446;2023-02-15T11:25:34;3.50;99.90
10143;DHT22;5112;54.088;13.446;2023-02-15T11:35:49;3.60;99.90
10143;DHT22;5112;54.088;13.446;2023-02-15T11:45:53;3.70;99.90
10143;DHT22;5112;54.088;13.446;2023-02-15T11:55:55;3.70;99.90
10143;DHT22;5112;54.088;13.446;2023-02-15T12:06:02;3.60;99.90
10143;DHT22;5112;54.088;13.446;2023-02-15T12:16:07;3.60;99.90
10143;DHT22;5112;54.088;13.446;2023-02-15T12:26:14;3.80;99.90
10143;DHT22;5112;54.088;13.446;2023-02-15T12:36:18;3.80;99.90
10143;DHT22;5112;54.088;13.446;2023-02-15T12:46:24;3.80;99.90
10143;DHT22;5112;54.088;13.446;2023-02-15T12:56:26;3.80;99.90
10143;DHT22;5112;54.088;13.446;2023-02-15T13:06:33;3.90;99.90
10143;DHT22;5112;54.088;13.446;2023-02-15T13:16:37;4.00;99.90
10143;DHT22;5112;54.088;13.446;2023-02-15T13:26:43;4.20;99.90
10143;DHT22;5112;54.088;13.446;2023-02-15T13:36:51;4.10;99.90
10143;DHT22;5112;54.088;13.446;2023-02-15T13:47:09;4.30;99.90
10143;DHT22;5112;54.088;13.446;2023-02-15T13:57:38;4.40;99.90
10143;DHT22;5112;54.088;13.446;2023-02-15T14:07:56;4.20;99.90
10143;DHT22;5112;54.088;13.446;2023-02-15T14:18:07;4.40;99.90
10143;DHT22;5112;54.088;13.446;2023-02-15T14:28:17;4.50;99.90
10143;DHT22;5112;54.088;13.446;2023-02-15T14:38:32;4.80;99.90
10143;DHT22;5112;54.088;13.446;2023-02-15T14:48:42;4.90;99.90
10143;DHT22;5112;54.088;13.446;2023-02-15T14:58:59;5.20;99.90
10143;DHT22;5112;54.088;13.446;2023-02-15T15:09:11;5.00;99.90
10143;DHT22;5112;54.088;13.446;2023-02-15T15:40:59;4.50;99.90
10143;DHT22;5112;54.088;13.446;2023-02-15T15:51:10;4.20;99.90
10143;DHT22;5112;54.088;13.446;2023-02-15T16:01:14;4.00;99.90
10143;DHT22;5112;54.088;13.446;2023-02-15T16:11:21;3.70;99.90
10143;DHT22;5112;54.088;13.446;2023-02-15T16:21:29;3.40;99.90
10143;DHT22;5112;54.088;13.446;2023-02-15T16:31:32;3.20;99.90
10143;DHT22;5112;54.088;13.446;2023-02-15T16:41:36;3.00;99.90
10143;DHT22;5112;54.088;13.446;2023-02-15T16:51:41;2.60;99.90
10143;DHT22;5112;54.088;13.446;2023-02-15T17:01:45;2.40;99.90
10143;DHT22;5112;54.088;13.446;2023-02-15T17:11:47;2.10;99.90
10143;DHT22;5112;54.088;13.446;2023-02-15T17:21:53;1.90;99.90
10143;DHT22;5112;54.088;13.446;2023-02-15T17:31:56;1.80;99.90
10143;DHT22;5112;54.088;13.446;2023-02-15T17:42:00;1.80;99.90
10143;DHT22;5112;54.088;13.446;2023-02-15T17:52:01;2.00;99.90
10143;DHT22;5112;54.088;13.446;2023-02-15T18:02:08;2.10;99.90
10143;DHT22;5112;54.088;13.446;2023-02-15T18:12:30;2.30;99.90
10143;DHT22;5112;54.088;13.446;2023-02-15T18:22:33;2.50;99.90
10143;DHT22;5112;54.088;13.446;2023-02-15T18:32:37;2.70;99.90
10143;DHT22;5112;54.088;13.446;2023-02-15T18:42:40;3.00;99.90
10143;DHT22;5112;54.088;13.446;2023-02-15T18:52:47;3.30;99.90
10143;DHT22;5112;54.088;13.446;2023-02-15T19:02:52;3.50;99.90
10143;DHT22;5112;54.088;13.446;2023-02-15T19:12:54;3.40;99.90
10143;DHT22;5112;54.088;13.446;2023-02-15T19:22:58;3.00;99.90
10143;DHT22;5112;54.088;13.446;2023-02-15T19:33:01;2.90;99.90
10143;DHT22;5112;54.088;13.446;2023-02-15T19:43:14;2.70;99.90
10143;DHT22;5112;54.088;13.446;2023-02-15T19:53:20;2.80;99.90
10143;DHT22;5112;54.088;13.446;2023-02-15T20:03:24;2.80;99.90
10143;DHT22;5112;54.088;13.446;2023-02-15T20:13:25;2.90;99.90
10143;DHT22;5112;54.088;13.446;2023-02-15T20:23:32;2.90;99.90
10143;DHT22;5112;54.088;13.446;2023-02-15T20:33:34;3.00;99.90
10143;DHT22;5112;54.088;13.446;2023-02-15T20:43:37;3.00;99.90
10143;DHT22;5112;54.088;13.446;2023-02-15T20:53:39;3.00;99.90
10143;DHT22;5112;54.088;13.446;2023-02-15T21:03:42;3.00;99.90
10143;DHT22;5112;54.088;13.446;2023-02-15T21:13:45;3.10;99.90
10143;DHT22;5112;54.088;13.446;2023-02-15T21:23:48;3.00;99.90
10143;DHT22;5112;54.088;13.446;2023-02-15T21:33:51;3.00;99.90
10143;DHT22;5112;54.088;13.446;2023-02-15T21:43:54;2.90;99.90
10143;DHT22;5112;54.088;13.446;2023-02-15T21:54:14;3.00;99.90
10143;DHT22;5112;54.088;13.446;2023-02-15T22:04:21;3.00;99.90
10143;DHT22;5112;54.088;13.446;2023-02-15T22:14:34;3.10;99.90
10143;DHT22;5112;54.088;13.446;2023-02-15T22:24:38;3.00;99.90
10143;DHT22;5112;54.088;13.446;2023-02-15T22:34:40;2.90;99.90
10143;DHT22;5112;54.088;13.446;2023-02-15T22:44:43;2.90;99.90
10143;DHT22;5112;54.088;13.446;2023-02-15T22:54:44;2.80;99.90
10143;DHT22;5112;54.088;13.446;2023-02-15T23:04:48;2.80;99.90
10143;DHT22;5112;54.088;13.446;2023-02-15T23:14:50;2.80;99.90
10143;DHT22;5112;54.088;13.446;2023-02-15T23:24:53;2.70;99.90
10143;DHT22;5112;54.088;13.446;2023-02-15T23:34:54;2.70;99.90
10143;DHT22;5112;54.088;13.446;2023-02-15T23:44:57;2.80;99.90
10143;DHT22;5112;54.088;13.446;2023-02-15T23:54:59;2.80;99.90
